createdAt,value
2017-12-06T00:00:07.411Z,16.67
2017-12-06T00:02:40.374Z,16.97
2017-12-06T00:05:06.327Z,16.40
2017-12-06T00:07:32.912Z,17.07
2017-12-06T00:09:59.718Z,16.80
2017-12-06T00:12:35.741Z,17.03
2017-12-06T00:15:07.857Z,14.70
2017-12-06T00:17:34.469Z,17.00
2017-12-06T00:20:01.425Z,14.83
2017-12-06T00:22:28.284Z,15.37
2017-12-06T00:24:54.236Z,15.00
2017-12-06T00:27:23.228Z,15.77
2017-12-06T00:29:49.623Z,14.27
2017-12-06T00:32:16.508Z,15.47
2017-12-06T00:34:43.251Z,15.30
2017-12-06T00:37:09.882Z,16.60
2017-12-06T00:39:38.478Z,15.50
2017-12-06T00:42:06.267Z,15.00
2017-12-06T00:44:32.861Z,17.97
2017-12-06T00:47:00.822Z,15.17
2017-12-06T00:49:27.546Z,14.50
2017-12-06T00:51:53.724Z,14.10
2017-12-06T00:54:19.708Z,15.50
2017-12-06T00:56:47.075Z,18.00
2017-12-06T00:59:13.745Z,15.37
2017-12-06T01:01:39.737Z,14.07
2017-12-06T01:04:05.806Z,15.40
2017-12-06T01:06:32.123Z,14.60
2017-12-06T01:08:58.755Z,16.67
2017-12-06T01:11:26.369Z,14.70
2017-12-06T01:13:54.109Z,16.37
2017-12-06T01:16:21.630Z,15.43
2017-12-06T01:18:50.602Z,15.20
2017-12-06T01:21:19.151Z,15.83
2017-12-06T01:23:47.383Z,14.87
2017-12-06T01:26:13.333Z,15.27
2017-12-06T01:28:39.912Z,14.43
2017-12-06T01:31:09.285Z,14.47
2017-12-06T01:33:35.251Z,15.30
2017-12-06T01:36:01.190Z,14.00
2017-12-06T01:38:33.308Z,15.13
2017-12-06T01:41:01.803Z,14.90
2017-12-06T01:43:28.488Z,14.50
2017-12-06T01:45:54.866Z,14.00
2017-12-06T01:48:20.893Z,15.47
2017-12-06T01:50:47.485Z,15.00
2017-12-06T01:53:16.883Z,15.33
2017-12-06T01:55:42.850Z,15.83
2017-12-06T01:58:08.828Z,15.40
2017-12-06T02:00:34.852Z,14.43
2017-12-06T02:03:00.791Z,15.77
2017-12-06T02:05:27.416Z,15.30
2017-12-06T02:07:53.329Z,14.63
2017-12-06T02:10:19.246Z,15.23
2017-12-06T02:12:45.150Z,14.70
2017-12-06T02:15:13.055Z,14.50
2017-12-06T02:17:39.589Z,15.30
2017-12-06T02:20:06.565Z,14.60
2017-12-06T02:22:33.287Z,14.60
2017-12-06T02:24:59.858Z,14.30
2017-12-06T02:27:25.811Z,13.67
2017-12-06T02:29:52.707Z,15.60
2017-12-06T02:32:18.620Z,14.37
2017-12-06T02:34:44.522Z,16.90
2017-12-06T02:37:12.471Z,15.97
2017-12-06T02:39:51.041Z,16.40
2017-12-06T02:42:29.437Z,15.00
2017-12-06T02:45:07.649Z,15.50
2017-12-06T02:47:34.031Z,15.43
2017-12-06T02:50:01.191Z,14.97
2017-12-06T02:52:29.487Z,14.10
2017-12-06T02:54:55.422Z,13.97
2017-12-06T02:57:21.390Z,16.10
2017-12-06T02:59:48.315Z,15.83
2017-12-06T03:02:14.258Z,14.67
2017-12-06T03:04:40.238Z,15.97
2017-12-06T03:07:06.200Z,16.10
2017-12-06T03:09:32.201Z,17.00
2017-12-06T03:11:58.153Z,16.90
2017-12-06T03:14:24.097Z,16.67
2017-12-06T03:16:50.043Z,15.87
2017-12-06T03:19:16.723Z,18.77
2017-12-06T03:21:42.649Z,16.13
2017-12-06T03:24:08.669Z,16.00
2017-12-06T03:26:34.571Z,15.60
2017-12-06T03:29:00.492Z,15.47
2017-12-06T03:31:26.412Z,15.43
2017-12-06T03:33:54.766Z,17.83
2017-12-06T03:36:23.359Z,16.73
2017-12-06T03:38:49.335Z,16.90
2017-12-06T03:41:16.763Z,17.60
2017-12-06T03:43:42.686Z,17.43
2017-12-06T03:46:11.081Z,17.27
2017-12-06T03:48:37.392Z,15.90
2017-12-06T03:51:04.344Z,17.20
2017-12-06T03:53:30.775Z,17.63
2017-12-06T03:55:56.741Z,17.73
2017-12-06T03:58:22.712Z,17.53
2017-12-06T04:00:50.763Z,19.67
2017-12-06T04:03:16.722Z,19.23
2017-12-06T04:05:43.222Z,18.70
2017-12-06T04:08:09.775Z,16.87
2017-12-06T04:10:35.699Z,17.67
2017-12-06T04:13:01.771Z,19.27
2017-12-06T04:15:28.467Z,18.37
2017-12-06T04:17:58.259Z,18.40
2017-12-06T04:20:24.914Z,17.90
2017-12-06T04:22:50.855Z,18.80
2017-12-06T04:25:16.787Z,18.33
2017-12-06T04:27:42.705Z,18.40
2017-12-06T04:30:08.639Z,18.47
2017-12-06T04:32:35.798Z,16.90
2017-12-06T04:35:01.752Z,18.63
2017-12-06T04:37:27.768Z,20.23
2017-12-06T04:39:53.710Z,18.80
2017-12-06T04:42:19.878Z,18.60
2017-12-06T04:44:46.598Z,18.87
2017-12-06T04:47:12.549Z,17.30
2017-12-06T04:49:39.883Z,17.60
2017-12-06T04:52:05.865Z,20.60
2017-12-06T04:54:33.030Z,18.20
2017-12-06T04:56:58.983Z,19.27
2017-12-06T04:59:25.645Z,18.63
2017-12-06T05:01:51.596Z,18.17
2017-12-06T05:04:17.556Z,18.03
2017-12-06T05:06:43.500Z,19.40
2017-12-06T05:09:09.438Z,18.77
2017-12-06T05:11:35.377Z,18.93
2017-12-06T05:14:01.672Z,19.83
2017-12-06T05:16:27.654Z,19.70
2017-12-06T05:18:53.620Z,18.40
2017-12-06T05:21:19.575Z,20.33
2017-12-06T05:23:45.494Z,19.30
2017-12-06T05:26:11.550Z,18.40
2017-12-06T05:28:39.281Z,17.97
2017-12-06T05:31:05.327Z,18.43
2017-12-06T05:33:31.261Z,19.50
2017-12-06T05:35:57.398Z,17.13
2017-12-06T05:38:23.340Z,18.10
2017-12-06T05:40:49.281Z,18.37
2017-12-06T05:43:15.252Z,18.07
2017-12-06T05:45:41.228Z,17.13
2017-12-06T05:48:07.179Z,17.07
2017-12-06T05:50:33.091Z,18.40
2017-12-06T05:52:59.049Z,18.23
2017-12-06T05:55:25.804Z,20.93
2017-12-06T05:57:53.023Z,17.70
2017-12-06T06:00:21.231Z,16.83
2017-12-06T06:02:48.556Z,18.53
2017-12-06T06:05:14.570Z,18.83
2017-12-06T06:07:40.470Z,20.20
2017-12-06T06:10:06.629Z,26.73
2017-12-06T06:12:36.302Z,23.10
2017-12-06T06:15:02.433Z,17.00
2017-12-06T06:17:28.503Z,17.17
2017-12-06T06:19:55.344Z,17.93
2017-12-06T06:24:58.959Z,17.60
2017-12-06T06:27:25.660Z,18.90
2017-12-06T06:29:53.610Z,16.57
2017-12-06T06:32:19.645Z,16.80
2017-12-06T06:34:45.992Z,17.17
2017-12-06T06:37:11.931Z,17.87
2017-12-06T06:39:37.915Z,18.10
2017-12-06T06:42:06.621Z,16.53
2017-12-06T06:44:32.636Z,17.87
2017-12-06T06:47:03.174Z,18.53
2017-12-06T06:49:31.017Z,17.80
2017-12-06T06:51:59.630Z,18.43
2017-12-06T06:54:27.690Z,17.90
2017-12-06T06:56:56.176Z,17.67
2017-12-06T06:59:22.710Z,17.57
2017-12-06T07:04:26.935Z,18.33
2017-12-06T07:06:54.564Z,17.03
2017-12-06T07:09:23.668Z,17.73
2017-12-06T07:11:52.908Z,15.53
2017-12-06T07:14:21.352Z,18.50
2017-12-06T07:19:40.378Z,18.80
2017-12-06T07:22:06.839Z,17.43
2017-12-06T07:24:35.448Z,18.20
2017-12-06T07:27:03.049Z,17.03
2017-12-06T07:29:29.739Z,16.83
2017-12-06T07:31:58.547Z,18.23
2017-12-06T07:34:25.923Z,18.40
2017-12-06T07:36:55.357Z,17.17
2017-12-06T07:39:23.026Z,17.80
2017-12-06T07:41:49.075Z,16.87
2017-12-06T07:44:17.288Z,18.33
2017-12-06T07:46:43.760Z,17.37
2017-12-06T07:49:13.629Z,17.57
2017-12-06T07:51:41.171Z,17.30
2017-12-06T07:54:07.212Z,15.93
2017-12-06T07:56:33.141Z,18.30
2017-12-06T07:58:59.352Z,17.70
2017-12-06T08:01:27.869Z,17.40
2017-12-06T08:03:55.102Z,17.10
2017-12-06T08:06:21.095Z,16.90
2017-12-06T08:08:47.863Z,17.57
2017-12-06T08:11:15.514Z,18.30
2017-12-06T08:13:41.480Z,18.47
2017-12-06T08:16:07.426Z,18.20
2017-12-06T08:18:33.491Z,16.50
2017-12-06T08:21:02.767Z,17.10
2017-12-06T08:23:32.833Z,16.70
2017-12-06T08:25:59.059Z,16.67
2017-12-06T08:28:26.835Z,16.57
2017-12-06T08:30:55.080Z,15.63
2017-12-06T08:33:21.167Z,16.03
2017-12-06T08:35:50.773Z,15.20
2017-12-06T08:38:17.565Z,14.60
2017-12-06T08:40:43.579Z,14.30
2017-12-06T08:43:11.075Z,14.60
2017-12-06T08:45:37.053Z,14.60
2017-12-06T08:48:03.831Z,15.47
2017-12-06T08:50:29.954Z,14.60
2017-12-06T08:52:59.231Z,15.30
2017-12-06T08:55:27.019Z,13.43
2017-12-06T08:57:53.835Z,16.20
2017-12-06T09:00:19.887Z,14.70
2017-12-06T09:02:45.948Z,15.40
2017-12-06T09:05:12.691Z,13.10
2017-12-06T09:07:40.100Z,15.00
2017-12-06T09:10:06.068Z,13.57
2017-12-06T09:12:32.075Z,15.70
2017-12-06T09:14:59.907Z,14.67
2017-12-06T09:17:25.864Z,14.23
2017-12-06T09:19:51.891Z,15.07
2017-12-06T09:22:17.871Z,14.30
2017-12-06T09:24:44.680Z,15.63
2017-12-06T09:27:10.650Z,15.20
2017-12-06T09:29:36.609Z,17.20
2017-12-06T09:32:02.616Z,14.37
2017-12-06T09:34:28.542Z,15.93
2017-12-06T09:36:54.700Z,14.30
2017-12-06T09:39:20.635Z,13.53
2017-12-06T09:41:48.007Z,15.20
2017-12-06T09:44:16.803Z,14.23
2017-12-06T09:46:42.786Z,17.50
2017-12-06T09:49:08.730Z,16.47
2017-12-06T09:51:35.485Z,16.17
2017-12-06T09:54:01.437Z,15.30
2017-12-06T09:56:27.381Z,17.53
2017-12-06T09:58:53.635Z,18.77
2017-12-06T10:01:19.615Z,16.97
2017-12-06T10:03:45.526Z,17.10
2017-12-06T10:06:11.525Z,19.50
2017-12-06T10:08:37.519Z,17.90
2017-12-06T10:11:03.686Z,17.30
2017-12-06T10:13:30.408Z,16.70
2017-12-06T10:15:56.320Z,17.73
2017-12-06T10:18:22.242Z,17.10
2017-12-06T10:20:49.082Z,17.00
2017-12-06T10:23:15.002Z,18.40
2017-12-06T10:25:41.500Z,17.67
2017-12-06T10:28:09.017Z,17.83
2017-12-06T10:30:34.976Z,20.53
2017-12-06T10:33:00.946Z,17.03
2017-12-06T10:35:26.894Z,18.40
2017-12-06T10:37:53.595Z,17.70
2017-12-06T10:40:19.526Z,18.07
2017-12-06T10:42:46.070Z,18.17
2017-12-06T10:45:12.757Z,17.07
2017-12-06T10:47:40.418Z,20.77
2017-12-06T10:50:06.371Z,19.90
2017-12-06T10:52:32.293Z,20.13
2017-12-06T10:54:58.383Z,18.73
2017-12-06T10:57:25.452Z,20.50
2017-12-06T10:59:53.583Z,20.57
2017-12-06T11:02:20.418Z,21.43
2017-12-06T11:04:47.185Z,21.03
2017-12-06T11:07:13.118Z,21.13
2017-12-06T11:09:39.300Z,19.80
2017-12-06T11:12:05.511Z,20.63
2017-12-06T11:14:32.402Z,20.07
2017-12-06T11:16:58.342Z,19.83
2017-12-06T11:19:24.267Z,20.60
2017-12-06T11:21:52.169Z,21.77
2017-12-06T11:24:18.915Z,19.30
2017-12-06T11:26:44.935Z,20.37
2017-12-06T11:29:11.821Z,20.90
2017-12-06T11:31:37.975Z,20.10
2017-12-06T11:34:05.243Z,20.47
2017-12-06T11:36:31.173Z,19.67
2017-12-06T11:38:57.615Z,20.40
2017-12-06T11:41:23.640Z,19.70
2017-12-06T11:43:50.035Z,20.43
2017-12-06T11:46:16.059Z,20.10
2017-12-06T11:48:41.962Z,19.93
2017-12-06T11:51:07.942Z,18.17
2017-12-06T11:53:33.863Z,20.27
2017-12-06T11:55:59.820Z,18.47
2017-12-06T11:58:27.983Z,19.60
2017-12-06T12:00:54.531Z,18.80
2017-12-06T12:03:20.527Z,19.77
2017-12-06T12:05:46.521Z,21.00
2017-12-06T12:08:13.156Z,20.03
2017-12-06T12:10:40.091Z,18.57
2017-12-06T12:13:06.967Z,18.53
2017-12-06T12:15:33.725Z,20.27
2017-12-06T12:18:01.151Z,18.97
2017-12-06T12:20:27.137Z,20.27
2017-12-06T12:22:55.550Z,20.30
2017-12-06T12:25:26.943Z,19.87
2017-12-06T12:27:52.898Z,19.07
2017-12-06T12:30:19.457Z,20.40
2017-12-06T12:32:46.346Z,20.53
2017-12-06T12:35:12.276Z,20.83
2017-12-06T12:37:38.210Z,19.83
2017-12-06T12:40:04.727Z,20.47
2017-12-06T12:42:32.867Z,20.33
2017-12-06T12:44:58.843Z,21.43
2017-12-06T12:47:24.756Z,19.23
2017-12-06T12:49:52.322Z,23.80
2017-12-06T12:52:18.260Z,22.20
2017-12-06T12:54:44.284Z,23.27
2017-12-06T12:57:10.907Z,21.10
2017-12-06T12:59:36.850Z,21.23
2017-12-06T13:02:02.784Z,21.67
2017-12-06T13:04:31.744Z,23.23
2017-12-06T13:07:00.938Z,21.67
2017-12-06T13:09:26.866Z,20.10
2017-12-06T13:11:52.855Z,27.70
2017-12-06T13:14:18.906Z,20.40
2017-12-06T13:16:46.177Z,22.73
2017-12-06T13:19:13.054Z,22.10
2017-12-06T13:21:40.720Z,23.00
2017-12-06T13:24:06.613Z,22.30
2017-12-06T13:26:33.147Z,24.67
2017-12-06T13:28:59.524Z,25.23
2017-12-06T13:31:26.373Z,25.43
2017-12-06T13:33:52.540Z,23.33
2017-12-06T13:36:18.526Z,25.60
2017-12-06T13:38:44.446Z,24.70
2017-12-06T13:41:10.352Z,24.80
2017-12-06T13:43:37.376Z,23.30
2017-12-06T13:46:04.675Z,23.87
2017-12-06T13:48:31.572Z,23.70
2017-12-06T13:50:57.549Z,21.77
2017-12-06T13:53:24.842Z,23.20
2017-12-06T13:55:51.147Z,22.70
2017-12-06T13:58:17.186Z,22.83
2017-12-06T14:00:44.711Z,23.40
2017-12-06T14:03:14.904Z,22.63
2017-12-06T14:05:41.851Z,22.60
2017-12-06T14:08:07.888Z,22.33
2017-12-06T14:10:35.552Z,24.33
2017-12-06T14:13:01.568Z,23.17
2017-12-06T14:15:29.166Z,22.57
2017-12-06T14:17:55.487Z,22.47
2017-12-06T14:20:23.369Z,21.60
2017-12-06T14:22:51.734Z,24.23
2017-12-06T14:25:19.779Z,24.43
2017-12-06T14:27:49.140Z,24.40
2017-12-06T14:30:17.277Z,21.87
2017-12-06T14:32:43.252Z,23.97
2017-12-06T14:35:09.403Z,23.27
2017-12-06T14:37:36.551Z,22.40
2017-12-06T14:40:04.451Z,22.20
2017-12-06T14:42:31.765Z,22.27
2017-12-06T14:44:58.659Z,22.80
2017-12-06T14:47:26.492Z,23.53
2017-12-06T14:49:53.733Z,22.87
2017-12-06T14:52:20.467Z,25.27
2017-12-06T14:54:47.521Z,21.50
2017-12-06T14:57:14.152Z,24.60
2017-12-06T14:59:40.817Z,22.57
2017-12-06T15:02:06.755Z,21.47
2017-12-06T15:04:32.734Z,21.87
2017-12-06T15:06:59.441Z,20.90
2017-12-06T15:09:25.410Z,24.93
2017-12-06T15:11:51.551Z,22.30
2017-12-06T15:14:17.619Z,22.90
2017-12-06T15:16:43.934Z,20.80
2017-12-06T15:19:10.179Z,22.30
2017-12-06T15:21:41.634Z,21.20
2017-12-06T15:24:07.923Z,21.23
2017-12-06T15:26:33.977Z,22.73
2017-12-06T15:28:59.968Z,22.20
2017-12-06T15:31:26.729Z,22.10
2017-12-06T15:34:21.596Z,21.77
2017-12-06T15:36:52.654Z,22.50
2017-12-06T15:39:18.938Z,22.40
2017-12-06T15:41:47.394Z,21.77
2017-12-06T15:44:13.956Z,23.10
2017-12-06T15:46:40.967Z,21.37
2017-12-06T15:49:07.662Z,22.40
2017-12-06T15:51:36.009Z,33.70
2017-12-06T15:54:03.797Z,21.90
2017-12-06T15:56:30.939Z,23.80
2017-12-06T15:58:56.976Z,23.70
2017-12-06T16:01:22.950Z,21.53
2017-12-06T16:03:49.759Z,22.23
2017-12-06T16:06:17.660Z,21.57
2017-12-06T16:08:44.128Z,20.77
2017-12-06T16:11:10.088Z,19.57
2017-12-06T16:13:36.319Z,21.40
2017-12-06T16:16:03.634Z,20.43
2017-12-06T16:18:31.302Z,21.73
2017-12-06T16:20:57.996Z,22.73
2017-12-06T16:23:23.987Z,21.23
2017-12-06T16:25:50.110Z,19.90
2017-12-06T16:28:19.939Z,21.40
2017-12-06T16:30:46.738Z,21.30
2017-12-06T16:33:23.044Z,21.07
2017-12-06T16:36:01.316Z,20.40
2017-12-06T16:38:31.254Z,20.70
2017-12-06T16:40:57.370Z,20.70
2017-12-06T16:43:23.445Z,22.60
2017-12-06T16:45:57.639Z,20.60
2017-12-06T16:48:24.697Z,21.90
2017-12-06T16:50:51.223Z,20.70
2017-12-06T16:53:17.383Z,20.57
2017-12-06T16:55:45.343Z,20.37
2017-12-06T16:58:11.293Z,20.83
2017-12-06T17:00:37.278Z,21.30
2017-12-06T17:03:04.010Z,20.87
2017-12-06T17:05:29.957Z,21.30
2017-12-06T17:07:55.911Z,21.50
2017-12-06T17:10:21.803Z,21.73
2017-12-06T17:12:47.741Z,21.87
2017-12-06T17:15:13.695Z,21.50
2017-12-06T17:17:39.733Z,20.03
2017-12-06T17:20:05.756Z,20.60
2017-12-06T17:22:31.711Z,19.40
2017-12-06T17:24:59.193Z,20.40
2017-12-06T17:27:25.452Z,21.30
2017-12-06T17:30:04.415Z,21.07
2017-12-06T17:32:30.401Z,19.03
2017-12-06T17:34:57.129Z,21.13
2017-12-06T17:37:23.159Z,21.57
2017-12-06T17:39:50.095Z,20.70
2017-12-06T17:42:16.331Z,22.30
2017-12-06T17:44:43.874Z,22.23
2017-12-06T17:47:09.822Z,22.70
2017-12-06T17:49:37.902Z,22.27
2017-12-06T17:52:05.620Z,19.93
2017-12-06T17:54:31.575Z,23.33
2017-12-06T17:56:57.599Z,21.60
2017-12-06T17:59:24.461Z,22.40
2017-12-06T18:01:51.819Z,20.73
2017-12-06T18:04:18.692Z,21.20
2017-12-06T18:06:49.245Z,20.83
2017-12-06T18:09:16.411Z,21.07
2017-12-06T18:11:43.803Z,21.30
2017-12-06T18:14:10.702Z,21.77
2017-12-06T18:16:39.427Z,21.80
2017-12-06T18:19:05.438Z,21.80
2017-12-06T18:21:33.538Z,21.10
2017-12-06T18:23:59.495Z,21.60
2017-12-06T18:26:25.859Z,23.07
2017-12-06T18:28:52.610Z,24.80
2017-12-06T18:31:19.492Z,21.30
2017-12-06T18:33:45.487Z,21.20
2017-12-06T18:36:11.456Z,21.67
2017-12-06T18:38:37.460Z,21.70
2017-12-06T18:41:03.495Z,21.47
2017-12-06T18:43:29.532Z,24.57
2017-12-06T18:45:55.548Z,22.50
2017-12-06T18:48:22.119Z,21.90
2017-12-06T18:50:52.916Z,22.40
2017-12-06T18:53:22.697Z,22.03
2017-12-06T18:55:49.779Z,20.90
2017-12-06T18:58:15.730Z,22.77
2017-12-06T19:00:42.576Z,27.70
2017-12-06T19:03:13.698Z,21.70
2017-12-06T19:05:40.792Z,21.30
2017-12-06T19:08:06.750Z,22.23
2017-12-06T19:10:32.686Z,23.03
2017-12-06T19:12:59.415Z,22.70
2017-12-06T19:15:25.993Z,22.50
2017-12-06T19:17:51.891Z,23.60
2017-12-06T19:20:17.897Z,21.57
2017-12-06T19:22:44.113Z,22.70
2017-12-06T19:25:10.052Z,22.43
2017-12-06T19:27:35.950Z,21.20
2017-12-06T19:30:01.866Z,20.13
2017-12-06T19:32:27.778Z,24.30
2017-12-06T19:34:53.710Z,27.53
2017-12-06T19:37:20.627Z,26.17
2017-12-06T19:39:48.154Z,29.60
2017-12-06T19:42:15.010Z,24.10
2017-12-06T19:44:41.202Z,22.23
2017-12-06T19:47:07.206Z,23.20
2017-12-06T19:49:33.120Z,23.87
2017-12-06T19:51:59.022Z,21.17
2017-12-06T19:54:25.011Z,22.00
2017-12-06T19:56:50.932Z,23.10
2017-12-06T19:59:16.931Z,23.10
2017-12-06T20:01:43.775Z,24.07
2017-12-06T20:04:10.470Z,22.10
2017-12-06T20:06:38.101Z,21.60
2017-12-06T20:09:04.669Z,22.17
2017-12-06T20:11:30.594Z,21.37
2017-12-06T20:13:56.731Z,23.10
2017-12-06T20:16:22.661Z,23.03
2017-12-06T20:18:49.047Z,22.70
2017-12-06T20:21:15.575Z,22.07
2017-12-06T20:23:41.854Z,21.90
2017-12-06T20:26:09.565Z,23.20
2017-12-06T20:28:36.445Z,24.57
2017-12-06T20:31:03.345Z,22.50
2017-12-06T20:33:29.329Z,21.00
2017-12-06T20:35:57.291Z,22.77
2017-12-06T20:38:24.014Z,20.53
2017-12-06T20:40:50.797Z,25.40
2017-12-06T20:43:19.881Z,23.83
2017-12-06T20:45:48.419Z,23.50
2017-12-06T20:48:15.250Z,21.30
2017-12-06T20:50:42.998Z,22.77
2017-12-06T20:53:10.719Z,23.40
2017-12-06T20:55:36.738Z,21.47
2017-12-06T20:58:04.035Z,23.60
2017-12-06T21:00:30.953Z,21.30
2017-12-06T21:02:58.313Z,22.67
2017-12-06T21:05:24.242Z,21.67
2017-12-06T21:07:50.876Z,21.23
2017-12-06T21:10:17.436Z,21.10
2017-12-06T21:12:43.338Z,20.73
2017-12-06T21:15:09.322Z,20.87
2017-12-06T21:17:38.511Z,20.30
2017-12-06T21:20:05.494Z,21.87
2017-12-06T21:22:31.620Z,23.27
2017-12-06T21:24:57.541Z,21.20
2017-12-06T21:27:23.548Z,23.27
2017-12-06T21:29:50.517Z,22.07
2017-12-06T21:32:17.036Z,21.30
2017-12-06T21:34:43.757Z,21.10
2017-12-06T21:37:12.520Z,19.83
2017-12-06T21:39:41.815Z,22.60
2017-12-06T21:42:09.467Z,21.57
2017-12-06T21:44:35.599Z,20.97
2017-12-06T21:47:03.924Z,20.73
2017-12-06T21:49:29.988Z,22.40
2017-12-06T21:52:00.629Z,22.37
2017-12-06T21:54:27.547Z,22.57
2017-12-06T21:56:53.499Z,21.20
2017-12-06T21:59:20.761Z,22.10
2017-12-06T22:01:48.371Z,22.27
2017-12-06T22:04:15.699Z,21.53
2017-12-06T22:06:42.383Z,23.90
2017-12-06T22:09:09.237Z,23.00
2017-12-06T22:11:35.209Z,24.63
2017-12-06T22:14:01.159Z,22.00
2017-12-06T22:16:27.851Z,21.30
2017-12-06T22:18:56.608Z,22.70
2017-12-06T22:21:22.581Z,23.03
2017-12-06T22:23:48.530Z,23.97
2017-12-06T22:26:15.211Z,21.63
2017-12-06T22:28:41.213Z,22.50
2017-12-06T22:31:07.265Z,22.07
2017-12-06T22:33:34.186Z,23.80
2017-12-06T22:36:00.137Z,22.87
2017-12-06T22:38:26.075Z,22.33
2017-12-06T22:40:52.625Z,22.23
2017-12-06T22:43:18.603Z,21.70
2017-12-06T22:45:44.518Z,21.80
2017-12-06T22:48:10.584Z,21.37
2017-12-06T22:50:37.618Z,22.30
2017-12-06T22:53:04.589Z,24.53
2017-12-06T22:55:30.500Z,23.53
2017-12-06T22:57:56.407Z,26.33
2017-12-06T23:00:22.340Z,28.93
2017-12-06T23:02:48.244Z,22.43
2017-12-06T23:05:17.082Z,20.70
2017-12-06T23:07:43.035Z,26.10
2017-12-06T23:10:08.987Z,22.60
2017-12-06T23:12:34.920Z,22.07
2017-12-06T23:15:00.858Z,22.97
2017-12-06T23:17:26.841Z,23.03
2017-12-06T23:19:52.775Z,23.60
2017-12-06T23:22:19.720Z,24.23
2017-12-06T23:24:45.760Z,23.77
2017-12-06T23:27:11.780Z,22.40
2017-12-06T23:29:37.739Z,28.07
2017-12-06T23:32:03.731Z,27.50
2017-12-06T23:34:29.642Z,22.70
2017-12-06T23:36:55.580Z,24.87
2017-12-06T23:39:21.502Z,22.53
2017-12-06T23:41:47.433Z,22.00
2017-12-06T23:44:14.317Z,23.20
2017-12-06T23:46:40.287Z,24.63
2017-12-06T23:49:06.213Z,23.07
2017-12-06T23:51:32.098Z,21.57
2017-12-06T23:53:58.787Z,22.53
2017-12-06T23:56:24.697Z,22.53
2017-12-06T23:58:50.620Z,22.97
